sensor_id;sensor_type;location;lat;lon;timestamp;P1;durP1;ratioP1;P2;durP2;ratioP2
35679;SDS011;21803;53.586;10.040;2022-11-25T00:01:11;0.90;;;0.90;;
35679;SDS011;21803;53.586;10.040;2022-11-25T00:03:39;1.02;;;0.70;;
35679;SDS011;21803;53.586;10.040;2022-11-25T00:06:27;1.13;;;0.90;;
35679;SDS011;21803;53.586;10.040;2022-11-25T00:08:56;1.17;;;0.80;;
35679;SDS011;21803;53.586;10.040;2022-11-25T00:11:23;1.38;;;0.90;;
35679;SDS011;21803;53.586;10.040;2022-11-25T00:13:49;1.00;;;0.70;;
35679;SDS011;21803;53.586;10.040;2022-11-25T00:16:16;1.10;;;0.93;;
35679;SDS011;21803;53.586;10.040;2022-11-25T00:18:47;1.02;;;0.90;;
35679;SDS011;21803;53.586;10.040;2022-11-25T00:21:21;1.15;;;1.00;;
35679;SDS011;21803;53.586;10.040;2022-11-25T00:23:55;1.00;;;0.90;;
35679;SDS011;21803;53.586;10.040;2022-11-25T00:26:23;1.10;;;1.02;;
35679;SDS011;21803;53.586;10.040;2022-11-25T00:28:50;1.30;;;0.80;;
35679;SDS011;21803;53.586;10.040;2022-11-25T00:33:43;1.20;;;0.90;;
35679;SDS011;21803;53.586;10.040;2022-11-25T00:36:16;1.80;;;0.90;;
35679;SDS011;21803;53.586;10.040;2022-11-25T00:38:44;0.95;;;0.80;;
35679;SDS011;21803;53.586;10.040;2022-11-25T00:41:10;1.13;;;0.75;;
35679;SDS011;21803;53.586;10.040;2022-11-25T00:43:54;1.30;;;0.90;;
35679;SDS011;21803;53.586;10.040;2022-11-25T00:46:38;1.33;;;0.75;;
35679;SDS011;21803;53.586;10.040;2022-11-25T00:49:04;0.80;;;0.75;;
35679;SDS011;21803;53.586;10.040;2022-11-25T00:51:29;1.00;;;0.80;;
35679;SDS011;21803;53.586;10.040;2022-11-25T00:53:55;1.80;;;0.80;;
35679;SDS011;21803;53.586;10.040;2022-11-25T00:56:21;0.52;;;0.52;;
35679;SDS011;21803;53.586;10.040;2022-11-25T00:58:47;1.00;;;0.70;;
35679;SDS011;21803;53.586;10.040;2022-11-25T01:01:13;0.85;;;0.70;;
35679;SDS011;21803;53.586;10.040;2022-11-25T01:03:39;1.10;;;0.65;;
35679;SDS011;21803;53.586;10.040;2022-11-25T01:06:09;0.75;;;0.75;;
35679;SDS011;21803;53.586;10.040;2022-11-25T01:08:35;1.25;;;0.85;;
35679;SDS011;21803;53.586;10.040;2022-11-25T01:11:06;1.23;;;0.85;;
35679;SDS011;21803;53.586;10.040;2022-11-25T01:13:32;1.17;;;1.00;;
35679;SDS011;21803;53.586;10.040;2022-11-25T01:16:02;1.00;;;0.80;;
35679;SDS011;21803;53.586;10.040;2022-11-25T01:18:29;0.90;;;0.60;;
35679;SDS011;21803;53.586;10.040;2022-11-25T01:21:03;1.13;;;1.00;;
35679;SDS011;21803;53.586;10.040;2022-11-25T01:23:32;1.02;;;0.70;;
35679;SDS011;21803;53.586;10.040;2022-11-25T01:26:05;0.77;;;0.77;;
35679;SDS011;21803;53.586;10.040;2022-11-25T01:28:33;0.88;;;0.77;;
35679;SDS011;21803;53.586;10.040;2022-11-25T01:31:00;1.17;;;0.80;;
35679;SDS011;21803;53.586;10.040;2022-11-25T01:33:27;0.93;;;0.80;;
35679;SDS011;21803;53.586;10.040;2022-11-25T01:35:53;1.02;;;0.80;;
35679;SDS011;21803;53.586;10.040;2022-11-25T01:38:19;1.10;;;0.95;;
35679;SDS011;21803;53.586;10.040;2022-11-25T01:40:44;1.00;;;0.80;;
35679;SDS011;21803;53.586;10.040;2022-11-25T01:43:13;1.25;;;0.90;;
35679;SDS011;21803;53.586;10.040;2022-11-25T01:45:38;1.63;;;0.82;;
35679;SDS011;21803;53.586;10.040;2022-11-25T01:48:07;2.72;;;1.00;;
35679;SDS011;21803;53.586;10.040;2022-11-25T01:50:37;0.90;;;0.75;;
35679;SDS011;21803;53.586;10.040;2022-11-25T01:53:05;1.05;;;0.80;;
35679;SDS011;21803;53.586;10.040;2022-11-25T01:55:33;1.20;;;0.90;;
35679;SDS011;21803;53.586;10.040;2022-11-25T01:58:03;1.20;;;0.85;;
35679;SDS011;21803;53.586;10.040;2022-11-25T02:00:32;1.10;;;0.90;;
35679;SDS011;21803;53.586;10.040;2022-11-25T02:02:58;1.08;;;0.80;;
35679;SDS011;21803;53.586;10.040;2022-11-25T02:05:26;1.13;;;0.82;;
35679;SDS011;21803;53.586;10.040;2022-11-25T02:07:59;1.40;;;0.73;;
35679;SDS011;21803;53.586;10.040;2022-11-25T02:10:25;1.45;;;0.93;;
35679;SDS011;21803;53.586;10.040;2022-11-25T02:12:53;1.45;;;0.65;;
35679;SDS011;21803;53.586;10.040;2022-11-25T02:15:19;1.17;;;0.90;;
35679;SDS011;21803;53.586;10.040;2022-11-25T02:17:45;1.63;;;0.80;;
35679;SDS011;21803;53.586;10.040;2022-11-25T02:20:18;1.42;;;0.90;;
35679;SDS011;21803;53.586;10.040;2022-11-25T02:25:42;1.33;;;0.88;;
35679;SDS011;21803;53.586;10.040;2022-11-25T02:28:13;1.15;;;1.00;;
35679;SDS011;21803;53.586;10.040;2022-11-25T02:30:41;1.23;;;0.90;;
35679;SDS011;21803;53.586;10.040;2022-11-25T02:33:07;0.70;;;0.70;;
35679;SDS011;21803;53.586;10.040;2022-11-25T02:40:36;0.70;;;0.70;;
35679;SDS011;21803;53.586;10.040;2022-11-25T02:43:06;0.75;;;0.75;;
35679;SDS011;21803;53.586;10.040;2022-11-25T02:45:35;1.35;;;0.90;;
35679;SDS011;21803;53.586;10.040;2022-11-25T02:48:11;0.95;;;0.80;;
35679;SDS011;21803;53.586;10.040;2022-11-25T02:50:36;1.00;;;0.90;;
35679;SDS011;21803;53.586;10.040;2022-11-25T02:53:02;1.42;;;0.90;;
35679;SDS011;21803;53.586;10.040;2022-11-25T02:55:28;1.00;;;0.90;;
35679;SDS011;21803;53.586;10.040;2022-11-25T02:57:54;0.88;;;0.88;;
35679;SDS011;21803;53.586;10.040;2022-11-25T03:00:19;0.60;;;0.60;;
35679;SDS011;21803;53.586;10.040;2022-11-25T03:02:45;0.95;;;0.80;;
35679;SDS011;21803;53.586;10.040;2022-11-25T03:05:11;0.80;;;0.80;;
35679;SDS011;21803;53.586;10.040;2022-11-25T03:07:37;0.57;;;0.57;;
35679;SDS011;21803;53.586;10.040;2022-11-25T03:10:03;0.80;;;0.80;;
35679;SDS011;21803;53.586;10.040;2022-11-25T03:12:29;0.60;;;0.60;;
35679;SDS011;21803;53.586;10.040;2022-11-25T03:14:54;1.30;;;0.90;;
35679;SDS011;21803;53.586;10.040;2022-11-25T03:17:21;0.70;;;0.70;;
35679;SDS011;21803;53.586;10.040;2022-11-25T03:19:46;1.50;;;0.73;;
35679;SDS011;21803;53.586;10.040;2022-11-25T03:22:12;0.93;;;0.80;;
35679;SDS011;21803;53.586;10.040;2022-11-25T03:24:37;1.02;;;0.93;;
35679;SDS011;21803;53.586;10.040;2022-11-25T03:27:03;1.45;;;0.93;;
35679;SDS011;21803;53.586;10.040;2022-11-25T03:29:28;1.20;;;0.70;;
35679;SDS011;21803;53.586;10.040;2022-11-25T03:31:54;0.80;;;0.70;;
35679;SDS011;21803;53.586;10.040;2022-11-25T03:34:19;0.70;;;0.70;;
35679;SDS011;21803;53.586;10.040;2022-11-25T03:36:45;0.63;;;0.63;;
35679;SDS011;21803;53.586;10.040;2022-11-25T03:39:10;0.70;;;0.70;;
35679;SDS011;21803;53.586;10.040;2022-11-25T03:41:36;0.82;;;0.70;;
35679;SDS011;21803;53.586;10.040;2022-11-25T03:44:01;1.05;;;0.82;;
35679;SDS011;21803;53.586;10.040;2022-11-25T03:46:27;1.05;;;0.93;;
35679;SDS011;21803;53.586;10.040;2022-11-25T03:48:52;0.70;;;0.70;;
35679;SDS011;21803;53.586;10.040;2022-11-25T03:51:19;0.90;;;0.80;;
35679;SDS011;21803;53.586;10.040;2022-11-25T03:53:44;0.80;;;0.80;;
35679;SDS011;21803;53.586;10.040;2022-11-25T03:56:10;1.02;;;0.90;;
35679;SDS011;21803;53.586;10.040;2022-11-25T03:58:35;1.00;;;0.80;;
35679;SDS011;21803;53.586;10.040;2022-11-25T04:01:01;1.10;;;0.90;;
35679;SDS011;21803;53.586;10.040;2022-11-25T04:03:27;1.48;;;0.80;;
35679;SDS011;21803;53.586;10.040;2022-11-25T04:05:53;0.82;;;0.77;;
35679;SDS011;21803;53.586;10.040;2022-11-25T04:08:19;0.93;;;0.80;;
35679;SDS011;21803;53.586;10.040;2022-11-25T04:10:45;2.35;;;0.95;;
35679;SDS011;21803;53.586;10.040;2022-11-25T04:13:10;1.45;;;0.90;;
35679;SDS011;21803;53.586;10.040;2022-11-25T04:15:36;0.70;;;0.70;;
35679;SDS011;21803;53.586;10.040;2022-11-25T04:18:02;0.90;;;0.80;;
35679;SDS011;21803;53.586;10.040;2022-11-25T04:20:27;0.93;;;0.80;;
35679;SDS011;21803;53.586;10.040;2022-11-25T04:22:53;0.80;;;0.77;;
35679;SDS011;21803;53.586;10.040;2022-11-25T04:25:18;0.80;;;0.80;;
35679;SDS011;21803;53.586;10.040;2022-11-25T04:27:44;1.00;;;0.80;;
35679;SDS011;21803;53.586;10.040;2022-11-25T04:30:09;0.82;;;0.73;;
35679;SDS011;21803;53.586;10.040;2022-11-25T04:32:36;0.82;;;0.77;;
35679;SDS011;21803;53.586;10.040;2022-11-25T04:35:02;1.90;;;0.88;;
35679;SDS011;21803;53.586;10.040;2022-11-25T04:37:28;1.20;;;0.88;;
35679;SDS011;21803;53.586;10.040;2022-11-25T04:39:54;0.50;;;0.50;;
35679;SDS011;21803;53.586;10.040;2022-11-25T04:42:19;0.80;;;0.75;;
35679;SDS011;21803;53.586;10.040;2022-11-25T04:44:58;0.60;;;0.60;;
35679;SDS011;21803;53.586;10.040;2022-11-25T04:47:24;1.33;;;0.90;;
35679;SDS011;21803;53.586;10.040;2022-11-25T04:49:50;0.90;;;0.70;;
35679;SDS011;21803;53.586;10.040;2022-11-25T04:52:15;1.48;;;0.70;;
35679;SDS011;21803;53.586;10.040;2022-11-25T04:54:41;0.90;;;0.80;;
35679;SDS011;21803;53.586;10.040;2022-11-25T04:57:07;0.60;;;0.60;;
35679;SDS011;21803;53.586;10.040;2022-11-25T04:59:37;0.95;;;0.70;;
35679;SDS011;21803;53.586;10.040;2022-11-25T05:02:14;0.80;;;0.70;;
35679;SDS011;21803;53.586;10.040;2022-11-25T05:04:42;0.80;;;0.80;;
35679;SDS011;21803;53.586;10.040;2022-11-25T05:07:09;0.70;;;0.68;;
35679;SDS011;21803;53.586;10.040;2022-11-25T05:09:35;1.15;;;0.85;;
35679;SDS011;21803;53.586;10.040;2022-11-25T05:12:03;0.77;;;0.77;;
35679;SDS011;21803;53.586;10.040;2022-11-25T05:14:30;1.33;;;0.80;;
35679;SDS011;21803;53.586;10.040;2022-11-25T05:16:56;1.10;;;0.90;;
35679;SDS011;21803;53.586;10.040;2022-11-25T05:19:21;1.00;;;0.70;;
35679;SDS011;21803;53.586;10.040;2022-11-25T05:21:47;0.90;;;0.77;;
35679;SDS011;21803;53.586;10.040;2022-11-25T05:24:12;1.05;;;0.88;;
35679;SDS011;21803;53.586;10.040;2022-11-25T05:26:38;0.80;;;0.75;;
35679;SDS011;21803;53.586;10.040;2022-11-25T05:29:03;1.52;;;0.82;;
35679;SDS011;21803;53.586;10.040;2022-11-25T05:31:29;0.88;;;0.70;;
35679;SDS011;21803;53.586;10.040;2022-11-25T05:33:55;0.70;;;0.63;;
35679;SDS011;21803;53.586;10.040;2022-11-25T05:36:20;1.00;;;0.80;;
35679;SDS011;21803;53.586;10.040;2022-11-25T05:38:46;1.00;;;0.90;;
35679;SDS011;21803;53.586;10.040;2022-11-25T05:41:11;1.13;;;1.02;;
35679;SDS011;21803;53.586;10.040;2022-11-25T05:43:37;0.60;;;0.60;;
35679;SDS011;21803;53.586;10.040;2022-11-25T05:46:03;1.10;;;0.95;;
35679;SDS011;21803;53.586;10.040;2022-11-25T05:48:30;1.13;;;0.70;;
35679;SDS011;21803;53.586;10.040;2022-11-25T05:50:58;1.05;;;0.80;;
35679;SDS011;21803;53.586;10.040;2022-11-25T05:53:24;0.77;;;0.75;;
35679;SDS011;21803;53.586;10.040;2022-11-25T05:55:57;0.85;;;0.80;;
35679;SDS011;21803;53.586;10.040;2022-11-25T05:58:24;1.10;;;0.90;;
35679;SDS011;21803;53.586;10.040;2022-11-25T06:00:52;1.05;;;0.90;;
35679;SDS011;21803;53.586;10.040;2022-11-25T06:03:17;0.90;;;0.80;;
35679;SDS011;21803;53.586;10.040;2022-11-25T06:05:43;1.20;;;0.80;;
35679;SDS011;21803;53.586;10.040;2022-11-25T06:08:09;0.70;;;0.68;;
35679;SDS011;21803;53.586;10.040;2022-11-25T06:10:38;0.98;;;0.80;;
35679;SDS011;21803;53.586;10.040;2022-11-25T06:13:04;1.05;;;0.90;;
35679;SDS011;21803;53.586;10.040;2022-11-25T06:15:30;0.77;;;0.73;;
35679;SDS011;21803;53.586;10.040;2022-11-25T06:17:56;0.82;;;0.80;;
35679;SDS011;21803;53.586;10.040;2022-11-25T06:20:21;0.80;;;0.80;;
35679;SDS011;21803;53.586;10.040;2022-11-25T06:22:47;1.10;;;0.80;;
35679;SDS011;21803;53.586;10.040;2022-11-25T06:25:12;1.27;;;0.90;;
35679;SDS011;21803;53.586;10.040;2022-11-25T06:27:38;0.85;;;0.82;;
35679;SDS011;21803;53.586;10.040;2022-11-25T06:30:04;1.42;;;0.90;;
35679;SDS011;21803;53.586;10.040;2022-11-25T06:32:30;0.80;;;0.80;;
35679;SDS011;21803;53.586;10.040;2022-11-25T06:34:55;0.65;;;0.65;;
35679;SDS011;21803;53.586;10.040;2022-11-25T06:37:21;0.85;;;0.80;;
35679;SDS011;21803;53.586;10.040;2022-11-25T06:39:46;0.88;;;0.80;;
35679;SDS011;21803;53.586;10.040;2022-11-25T06:42:12;1.00;;;0.70;;
35679;SDS011;21803;53.586;10.040;2022-11-25T06:44:37;1.13;;;0.75;;
35679;SDS011;21803;53.586;10.040;2022-11-25T06:47:03;0.85;;;0.80;;
35679;SDS011;21803;53.586;10.040;2022-11-25T06:49:28;0.98;;;0.70;;
35679;SDS011;21803;53.586;10.040;2022-11-25T06:51:54;0.95;;;0.68;;
35679;SDS011;21803;53.586;10.040;2022-11-25T06:54:19;0.80;;;0.80;;
35679;SDS011;21803;53.586;10.040;2022-11-25T06:56:45;0.68;;;0.68;;
35679;SDS011;21803;53.586;10.040;2022-11-25T06:59:15;0.93;;;0.80;;
35679;SDS011;21803;53.586;10.040;2022-11-25T07:01:41;0.80;;;0.80;;
35679;SDS011;21803;53.586;10.040;2022-11-25T07:04:07;0.70;;;0.70;;
35679;SDS011;21803;53.586;10.040;2022-11-25T07:06:32;0.90;;;0.80;;
35679;SDS011;21803;53.586;10.040;2022-11-25T07:08:58;0.80;;;0.80;;
35679;SDS011;21803;53.586;10.040;2022-11-25T07:11:29;1.00;;;0.82;;
35679;SDS011;21803;53.586;10.040;2022-11-25T07:14:04;0.80;;;0.77;;
35679;SDS011;21803;53.586;10.040;2022-11-25T07:16:31;1.05;;;0.80;;
35679;SDS011;21803;53.586;10.040;2022-11-25T07:18:58;0.80;;;0.80;;
35679;SDS011;21803;53.586;10.040;2022-11-25T07:21:26;0.68;;;0.68;;
35679;SDS011;21803;53.586;10.040;2022-11-25T07:23:53;0.70;;;0.70;;
35679;SDS011;21803;53.586;10.040;2022-11-25T07:26:20;1.10;;;0.80;;
35679;SDS011;21803;53.586;10.040;2022-11-25T07:28:47;0.93;;;0.80;;
35679;SDS011;21803;53.586;10.040;2022-11-25T07:31:15;0.77;;;0.60;;
35679;SDS011;21803;53.586;10.040;2022-11-25T07:33:52;1.02;;;0.75;;
35679;SDS011;21803;53.586;10.040;2022-11-25T07:36:19;0.63;;;0.60;;
35679;SDS011;21803;53.586;10.040;2022-11-25T07:38:46;0.80;;;0.77;;
35679;SDS011;21803;53.586;10.040;2022-11-25T07:41:12;1.25;;;0.90;;
35679;SDS011;21803;53.586;10.040;2022-11-25T07:43:42;0.90;;;0.90;;
35679;SDS011;21803;53.586;10.040;2022-11-25T07:48:36;1.38;;;0.90;;
35679;SDS011;21803;53.586;10.040;2022-11-25T07:51:02;0.98;;;0.80;;
35679;SDS011;21803;53.586;10.040;2022-11-25T07:53:27;0.93;;;0.70;;
35679;SDS011;21803;53.586;10.040;2022-11-25T07:55:53;0.75;;;0.75;;
35679;SDS011;21803;53.586;10.040;2022-11-25T07:58:18;0.85;;;0.65;;
35679;SDS011;21803;53.586;10.040;2022-11-25T08:00:44;0.82;;;0.80;;
35679;SDS011;21803;53.586;10.040;2022-11-25T08:03:09;0.77;;;0.77;;
35679;SDS011;21803;53.586;10.040;2022-11-25T08:05:35;0.70;;;0.70;;
35679;SDS011;21803;53.586;10.040;2022-11-25T08:08:00;1.27;;;0.88;;
35679;SDS011;21803;53.586;10.040;2022-11-25T08:10:26;0.90;;;0.80;;
35679;SDS011;21803;53.586;10.040;2022-11-25T08:12:51;1.10;;;0.90;;
35679;SDS011;21803;53.586;10.040;2022-11-25T08:15:17;1.40;;;0.82;;
35679;SDS011;21803;53.586;10.040;2022-11-25T08:17:43;2.25;;;0.90;;
35679;SDS011;21803;53.586;10.040;2022-11-25T08:20:09;0.93;;;0.80;;
35679;SDS011;21803;53.586;10.040;2022-11-25T08:22:34;1.35;;;0.80;;
35679;SDS011;21803;53.586;10.040;2022-11-25T08:25:00;1.05;;;0.80;;
35679;SDS011;21803;53.586;10.040;2022-11-25T08:27:25;1.25;;;0.98;;
35679;SDS011;21803;53.586;10.040;2022-11-25T08:29:51;1.85;;;0.80;;
35679;SDS011;21803;53.586;10.040;2022-11-25T08:32:16;2.00;;;0.80;;
35679;SDS011;21803;53.586;10.040;2022-11-25T08:34:42;1.02;;;0.93;;
35679;SDS011;21803;53.586;10.040;2022-11-25T08:37:07;0.68;;;0.68;;
35679;SDS011;21803;53.586;10.040;2022-11-25T08:39:33;1.25;;;0.82;;
35679;SDS011;21803;53.586;10.040;2022-11-25T08:42:00;1.13;;;0.93;;
35679;SDS011;21803;53.586;10.040;2022-11-25T08:44:28;1.30;;;0.90;;
35679;SDS011;21803;53.586;10.040;2022-11-25T08:46:54;0.80;;;0.77;;
35679;SDS011;21803;53.586;10.040;2022-11-25T08:49:19;0.85;;;0.75;;
35679;SDS011;21803;53.586;10.040;2022-11-25T08:51:46;0.88;;;0.70;;
35679;SDS011;21803;53.586;10.040;2022-11-25T08:54:12;0.90;;;0.80;;
35679;SDS011;21803;53.586;10.040;2022-11-25T08:56:38;0.65;;;0.65;;
35679;SDS011;21803;53.586;10.040;2022-11-25T08:59:03;0.77;;;0.73;;
35679;SDS011;21803;53.586;10.040;2022-11-25T09:01:29;0.95;;;0.80;;
35679;SDS011;21803;53.586;10.040;2022-11-25T09:03:55;1.15;;;0.90;;
35679;SDS011;21803;53.586;10.040;2022-11-25T09:06:23;1.10;;;0.80;;
35679;SDS011;21803;53.586;10.040;2022-11-25T09:08:50;1.15;;;0.70;;
35679;SDS011;21803;53.586;10.040;2022-11-25T09:11:18;0.82;;;0.80;;
35679;SDS011;21803;53.586;10.040;2022-11-25T09:13:43;1.23;;;0.82;;
35679;SDS011;21803;53.586;10.040;2022-11-25T09:16:09;1.15;;;0.60;;
35679;SDS011;21803;53.586;10.040;2022-11-25T09:18:34;0.70;;;0.60;;
35679;SDS011;21803;53.586;10.040;2022-11-25T09:21:05;0.70;;;0.70;;
35679;SDS011;21803;53.586;10.040;2022-11-25T09:23:32;1.30;;;1.20;;
35679;SDS011;21803;53.586;10.040;2022-11-25T09:25:58;1.00;;;0.80;;
35679;SDS011;21803;53.586;10.040;2022-11-25T09:28:24;1.42;;;1.08;;
35679;SDS011;21803;53.586;10.040;2022-11-25T09:30:50;1.00;;;0.90;;
35679;SDS011;21803;53.586;10.040;2022-11-25T09:33:16;1.00;;;0.73;;
35679;SDS011;21803;53.586;10.040;2022-11-25T09:35:42;2.13;;;0.82;;
35679;SDS011;21803;53.586;10.040;2022-11-25T09:38:08;0.80;;;0.80;;
35679;SDS011;21803;53.586;10.040;2022-11-25T09:57:24;0.75;;;0.75;;
35679;SDS011;21803;53.586;10.040;2022-11-25T10:00:03;1.40;;;1.00;;
35679;SDS011;21803;53.586;10.040;2022-11-25T10:02:40;0.80;;;0.80;;
35679;SDS011;21803;53.586;10.040;2022-11-25T10:05:15;1.02;;;0.73;;
35679;SDS011;21803;53.586;10.040;2022-11-25T10:07:50;0.80;;;0.63;;
35679;SDS011;21803;53.586;10.040;2022-11-25T10:10:19;0.88;;;0.80;;
35679;SDS011;21803;53.586;10.040;2022-11-25T10:12:49;1.02;;;0.80;;
35679;SDS011;21803;53.586;10.040;2022-11-25T10:17:54;0.95;;;0.70;;
35679;SDS011;21803;53.586;10.040;2022-11-25T10:22:55;0.70;;;0.70;;
35679;SDS011;21803;53.586;10.040;2022-11-25T10:25:28;2.80;;;1.30;;
35679;SDS011;21803;53.586;10.040;2022-11-25T10:28:02;1.40;;;0.80;;
35679;SDS011;21803;53.586;10.040;2022-11-25T10:30:36;3.80;;;0.85;;
35679;SDS011;21803;53.586;10.040;2022-11-25T10:33:19;1.15;;;1.00;;
35679;SDS011;21803;53.586;10.040;2022-11-25T10:35:46;0.77;;;0.60;;
35679;SDS011;21803;53.586;10.040;2022-11-25T10:40:49;0.85;;;0.80;;
35679;SDS011;21803;53.586;10.040;2022-11-25T10:43:16;0.93;;;0.73;;
35679;SDS011;21803;53.586;10.040;2022-11-25T10:45:54;1.15;;;0.80;;
35679;SDS011;21803;53.586;10.040;2022-11-25T10:54:17;1.73;;;0.85;;
35679;SDS011;21803;53.586;10.040;2022-11-25T10:59:20;0.95;;;0.80;;
35679;SDS011;21803;53.586;10.040;2022-11-25T11:01:50;1.88;;;1.00;;
35679;SDS011;21803;53.586;10.040;2022-11-25T11:04:17;1.27;;;0.70;;
35679;SDS011;21803;53.586;10.040;2022-11-25T11:06:44;1.35;;;0.73;;
35679;SDS011;21803;53.586;10.040;2022-11-25T11:09:34;0.77;;;0.77;;
35679;SDS011;21803;53.586;10.040;2022-11-25T11:14:45;1.00;;;0.75;;
35679;SDS011;21803;53.586;10.040;2022-11-25T11:17:26;2.05;;;0.88;;
35679;SDS011;21803;53.586;10.040;2022-11-25T11:22:32;1.48;;;0.80;;
35679;SDS011;21803;53.586;10.040;2022-11-25T11:25:06;1.52;;;1.00;;
35679;SDS011;21803;53.586;10.040;2022-11-25T11:27:44;1.23;;;0.90;;
35679;SDS011;21803;53.586;10.040;2022-11-25T11:30:17;1.17;;;0.82;;
35679;SDS011;21803;53.586;10.040;2022-11-25T11:32:52;1.10;;;0.77;;
35679;SDS011;21803;53.586;10.040;2022-11-25T11:35:22;0.80;;;0.70;;
35679;SDS011;21803;53.586;10.040;2022-11-25T11:38:01;1.88;;;0.68;;
35679;SDS011;21803;53.586;10.040;2022-11-25T11:40:43;0.98;;;0.70;;
35679;SDS011;21803;53.586;10.040;2022-11-25T11:43:23;1.38;;;0.73;;
35679;SDS011;21803;53.586;10.040;2022-11-25T11:46:14;2.53;;;0.85;;
35679;SDS011;21803;53.586;10.040;2022-11-25T11:56:59;0.82;;;0.70;;
35679;SDS011;21803;53.586;10.040;2022-11-25T11:59:35;1.55;;;0.70;;
35679;SDS011;21803;53.586;10.040;2022-11-25T12:16:14;1.73;;;0.90;;
35679;SDS011;21803;53.586;10.040;2022-11-25T12:19:01;1.30;;;0.70;;
35679;SDS011;21803;53.586;10.040;2022-11-25T12:21:36;1.08;;;0.70;;
35679;SDS011;21803;53.586;10.040;2022-11-25T12:24:13;1.27;;;0.77;;
35679;SDS011;21803;53.586;10.040;2022-11-25T12:32:40;1.50;;;0.95;;
35679;SDS011;21803;53.586;10.040;2022-11-25T12:35:41;2.05;;;0.60;;
35679;SDS011;21803;53.586;10.040;2022-11-25T12:38:26;1.02;;;0.70;;
35679;SDS011;21803;53.586;10.040;2022-11-25T12:41:22;1.77;;;0.80;;
35679;SDS011;21803;53.586;10.040;2022-11-25T12:44:08;1.55;;;0.90;;
35679;SDS011;21803;53.586;10.040;2022-11-25T12:46:49;2.40;;;0.73;;
35679;SDS011;21803;53.586;10.040;2022-11-25T12:49:18;4.00;;;1.05;;
35679;SDS011;21803;53.586;10.040;2022-11-25T12:52:05;1.98;;;0.75;;
35679;SDS011;21803;53.586;10.040;2022-11-25T12:55:12;2.17;;;0.77;;
35679;SDS011;21803;53.586;10.040;2022-11-25T12:57:56;3.30;;;0.85;;
35679;SDS011;21803;53.586;10.040;2022-11-25T13:17:06;1.35;;;0.80;;
35679;SDS011;21803;53.586;10.040;2022-11-25T13:19:34;1.27;;;0.73;;
35679;SDS011;21803;53.586;10.040;2022-11-25T13:22:02;1.75;;;0.88;;
35679;SDS011;21803;53.586;10.040;2022-11-25T13:24:51;5.70;;;1.00;;
35679;SDS011;21803;53.586;10.040;2022-11-25T13:27:29;2.45;;;1.00;;
35679;SDS011;21803;53.586;10.040;2022-11-25T13:30:04;1.40;;;0.70;;
35679;SDS011;21803;53.586;10.040;2022-11-25T13:32:50;2.13;;;1.20;;
35679;SDS011;21803;53.586;10.040;2022-11-25T13:37:50;1.38;;;0.90;;
35679;SDS011;21803;53.586;10.040;2022-11-25T13:42:56;3.90;;;1.10;;
35679;SDS011;21803;53.586;10.040;2022-11-25T13:48:15;5.53;;;1.10;;
35679;SDS011;21803;53.586;10.040;2022-11-25T13:50:45;2.33;;;0.90;;
35679;SDS011;21803;53.586;10.040;2022-11-25T13:56:11;2.40;;;0.90;;
35679;SDS011;21803;53.586;10.040;2022-11-25T13:59:17;1.50;;;1.00;;
35679;SDS011;21803;53.586;10.040;2022-11-25T14:04:10;6.40;;;1.30;;
35679;SDS011;21803;53.586;10.040;2022-11-25T14:09:23;5.30;;;1.70;;
35679;SDS011;21803;53.586;10.040;2022-11-25T14:20:02;3.17;;;1.80;;
35679;SDS011;21803;53.586;10.040;2022-11-25T14:25:55;2.83;;;1.50;;
35679;SDS011;21803;53.586;10.040;2022-11-25T14:31:05;2.15;;;1.45;;
35679;SDS011;21803;53.586;10.040;2022-11-25T14:33:35;1.92;;;1.20;;
35679;SDS011;21803;53.586;10.040;2022-11-25T14:36:11;3.75;;;1.30;;
35679;SDS011;21803;53.586;10.040;2022-11-25T14:38:42;3.42;;;1.40;;
35679;SDS011;21803;53.586;10.040;2022-11-25T14:41:15;4.63;;;1.73;;
35679;SDS011;21803;53.586;10.040;2022-11-25T14:43:46;2.90;;;1.38;;
35679;SDS011;21803;53.586;10.040;2022-11-25T14:46:17;2.83;;;1.30;;
35679;SDS011;21803;53.586;10.040;2022-11-25T14:48:51;2.65;;;1.30;;
35679;SDS011;21803;53.586;10.040;2022-11-25T14:51:18;2.47;;;1.23;;
35679;SDS011;21803;53.586;10.040;2022-11-25T14:53:45;2.30;;;1.25;;
35679;SDS011;21803;53.586;10.040;2022-11-25T14:56:12;3.13;;;1.30;;
35679;SDS011;21803;53.586;10.040;2022-11-25T14:58:46;2.53;;;1.20;;
35679;SDS011;21803;53.586;10.040;2022-11-25T15:04:12;3.17;;;1.35;;
35679;SDS011;21803;53.586;10.040;2022-11-25T15:06:47;2.65;;;1.20;;
35679;SDS011;21803;53.586;10.040;2022-11-25T15:09:25;3.17;;;1.38;;
35679;SDS011;21803;53.586;10.040;2022-11-25T15:11:56;2.92;;;1.10;;
35679;SDS011;21803;53.586;10.040;2022-11-25T15:14:29;2.05;;;1.17;;
35679;SDS011;21803;53.586;10.040;2022-11-25T15:16:58;3.47;;;1.40;;
35679;SDS011;21803;53.586;10.040;2022-11-25T15:19:25;2.40;;;1.02;;
35679;SDS011;21803;53.586;10.040;2022-11-25T15:21:56;3.22;;;1.40;;
35679;SDS011;21803;53.586;10.040;2022-11-25T15:24:24;2.17;;;1.00;;
35679;SDS011;21803;53.586;10.040;2022-11-25T15:26:54;2.10;;;1.20;;
35679;SDS011;21803;53.586;10.040;2022-11-25T15:29:21;1.95;;;1.10;;
35679;SDS011;21803;53.586;10.040;2022-11-25T15:31:48;2.92;;;0.90;;
35679;SDS011;21803;53.586;10.040;2022-11-25T15:34:16;1.10;;;1.00;;
35679;SDS011;21803;53.586;10.040;2022-11-25T15:36:44;4.63;;;1.05;;
35679;SDS011;21803;53.586;10.040;2022-11-25T15:41:55;1.90;;;1.00;;
35679;SDS011;21803;53.586;10.040;2022-11-25T15:44:43;1.55;;;0.90;;
35679;SDS011;21803;53.586;10.040;2022-11-25T15:47:22;1.70;;;0.90;;
35679;SDS011;21803;53.586;10.040;2022-11-25T15:52:28;1.45;;;0.93;;
35679;SDS011;21803;53.586;10.040;2022-11-25T15:54:58;2.05;;;1.15;;
35679;SDS011;21803;53.586;10.040;2022-11-25T15:57:34;3.03;;;1.17;;
35679;SDS011;21803;53.586;10.040;2022-11-25T16:00:08;1.50;;;0.90;;
35679;SDS011;21803;53.586;10.040;2022-11-25T16:12:41;0.90;;;0.80;;
35679;SDS011;21803;53.586;10.040;2022-11-25T16:15:15;1.40;;;0.80;;
35679;SDS011;21803;53.586;10.040;2022-11-25T16:17:41;1.77;;;0.90;;
35679;SDS011;21803;53.586;10.040;2022-11-25T16:20:17;1.40;;;0.80;;
35679;SDS011;21803;53.586;10.040;2022-11-25T16:22:43;1.75;;;0.95;;
35679;SDS011;21803;53.586;10.040;2022-11-25T16:25:09;1.13;;;0.70;;
35679;SDS011;21803;53.586;10.040;2022-11-25T16:27:38;1.58;;;0.90;;
35679;SDS011;21803;53.586;10.040;2022-11-25T16:32:30;1.48;;;0.90;;
35679;SDS011;21803;53.586;10.040;2022-11-25T16:35:16;1.50;;;0.80;;
35679;SDS011;21803;53.586;10.040;2022-11-25T16:37:44;1.38;;;0.90;;
35679;SDS011;21803;53.586;10.040;2022-11-25T16:40:11;1.77;;;0.90;;
35679;SDS011;21803;53.586;10.040;2022-11-25T16:42:37;0.80;;;0.70;;
35679;SDS011;21803;53.586;10.040;2022-11-25T16:45:02;0.80;;;0.70;;
35679;SDS011;21803;53.586;10.040;2022-11-25T16:47:41;1.85;;;0.90;;
35679;SDS011;21803;53.586;10.040;2022-11-25T16:50:13;1.13;;;0.95;;
35679;SDS011;21803;53.586;10.040;2022-11-25T16:52:40;1.00;;;0.82;;
35679;SDS011;21803;53.586;10.040;2022-11-25T16:55:06;0.77;;;0.75;;
35679;SDS011;21803;53.586;10.040;2022-11-25T16:57:31;1.15;;;0.80;;
35679;SDS011;21803;53.586;10.040;2022-11-25T16:59:58;1.23;;;0.90;;
35679;SDS011;21803;53.586;10.040;2022-11-25T17:02:29;1.45;;;0.88;;
35679;SDS011;21803;53.586;10.040;2022-11-25T17:04:55;0.98;;;0.70;;
35679;SDS011;21803;53.586;10.040;2022-11-25T17:07:22;1.27;;;0.90;;
35679;SDS011;21803;53.586;10.040;2022-11-25T17:09:48;1.48;;;0.98;;
35679;SDS011;21803;53.586;10.040;2022-11-25T17:12:15;1.17;;;1.08;;